Time;durP1;ratioP1;P1;durP2;ratioP2;P2;SDS_P1;SDS_P2;PMS_P1;PMS_P2;Temp;Humidity;BMP_temperature;BMP_pressure;BME280_temperature;BME280_humidity;BME280_pressure;Samples;Min_cycle;Max_cycle;Signal;HPM_P1;HPM_P2
2023/07/02 00:02:18;;;;;;;;;;;;;;;16.86;83.24;100658.41;5096168;28;19919;-75
2023/07/02 00:04:44;;;;;;;;;;;;;;;16.86;82.70;100654.88;5106686;28;20394;-74
2023/07/02 00:07:09;;;;;;;;;;;;;;;16.81;84.01;100651.59;5113186;28;19999;-76
2023/07/02 00:09:35;;;;;;;;;;;;;;;16.85;83.66;100651.34;5112935;28;19915;-75
2023/07/02 00:12:00;;;;;;;;;;;;;;;16.82;83.64;100654.19;5105820;28;20392;-75
2023/07/02 00:14:25;;;;;;;;;;;;;;;16.82;83.15;100648.84;5113224;28;20328;-75
2023/07/02 00:16:51;;;;;;;;;;;;;;;16.79;84.07;100650.78;5113073;28;19974;-75
2023/07/02 00:19:16;;;;;;;;;;;;;;;16.76;83.72;100636.63;5094693;28;19965;-75
2023/07/02 00:21:41;;;;;;;;;;;;;;;16.83;82.69;100614.94;5098437;28;20048;-75
2023/07/02 00:24:09;;;;;;;;;;;;;;;16.86;82.71;100607.59;5105679;28;19943;-75
2023/07/02 00:26:35;;;;;;;;;;;;;;;16.77;82.94;100624.97;5085917;28;19916;-75
2023/07/02 00:29:00;;;;;;;;;;;;;;;16.64;83.74;100633.69;5086227;28;19927;-75
2023/07/02 00:31:25;;;;;;;;;;;;;;;16.59;83.94;100649.09;5093873;28;19916;-75
2023/07/02 00:33:51;;;;;;;;;;;;;;;16.56;84.28;100647.44;5100653;28;20007;-75
2023/07/02 00:36:16;;;;;;;;;;;;;;;16.54;84.11;100650.19;5087048;28;19920;-75
2023/07/02 00:38:42;;;;;;;;;;;;;;;16.50;84.05;100661.97;5090852;28;19916;-75
2023/07/02 00:41:08;;;;;;;;;;;;;;;16.45;84.66;100660.47;5077489;28;20439;-75
2023/07/02 00:43:34;;;;;;;;;;;;;;;16.44;84.12;100654.25;5094163;28;19923;-75
2023/07/02 00:45:59;;;;;;;;;;;;;;;16.43;84.60;100657.88;5091395;28;21228;-75
2023/07/02 00:48:24;;;;;;;;;;;;;;;16.40;84.55;100665.19;5068533;28;20007;-75
2023/07/02 00:50:50;;;;;;;;;;;;;;;16.42;83.87;100663.28;5112423;28;19994;-75
2023/07/02 00:53:15;;;;;;;;;;;;;;;16.40;84.69;100670.53;5106809;28;20011;-75
2023/07/02 00:55:41;;;;;;;;;;;;;;;16.42;84.77;100671.31;5089286;28;19938;-75
2023/07/02 00:58:08;;;;;;;;;;;;;;;16.42;84.72;100661.50;5092859;28;19920;-75
2023/07/02 01:00:33;;;;;;;;;;;;;;;16.39;85.11;100666.97;5100095;28;19920;-76
2023/07/02 01:02:59;;;;;;;;;;;;;;;16.41;85.03;100666.91;5101000;28;19920;-76
2023/07/02 01:05:35;;;;;;;;;;;;;;;16.40;85.15;100670.53;5104238;28;19932;-75
2023/07/02 01:08:04;;;;;;;;;;;;;;;16.39;84.95;100664.28;5111650;28;19924;-74
2023/07/02 01:10:30;;;;;;;;;;;;;;;16.37;84.79;100674.22;5090700;28;20338;-75
2023/07/02 01:12:57;;;;;;;;;;;;;;;16.37;85.08;100678.69;5076642;28;19974;-76
2023/07/02 01:15:22;;;;;;;;;;;;;;;16.37;84.83;100673.34;5111701;28;19984;-76
2023/07/02 01:17:48;;;;;;;;;;;;;;;16.35;85.30;100676.09;5111880;28;19920;-75
2023/07/02 01:20:14;;;;;;;;;;;;;;;16.30;85.76;100680.81;5087584;28;19916;-75
2023/07/02 01:22:40;;;;;;;;;;;;;;;16.30;85.65;100680.81;5083115;28;20290;-76
2023/07/02 01:25:05;;;;;;;;;;;;;;;16.30;85.19;100679.00;5079050;28;20279;-75
2023/07/02 01:27:31;;;;;;;;;;;;;;;16.27;85.26;100686.28;5092578;28;20292;-75
2023/07/02 01:29:57;;;;;;;;;;;;;;;16.24;84.88;100686.41;5095163;28;19916;-75
2023/07/02 01:32:22;;;;;;;;;;;;;;;16.21;85.49;100684.75;5079380;28;20057;-75
2023/07/02 01:34:53;;;;;;;;;;;;;;;16.20;85.33;100680.38;5080869;28;19920;-75
2023/07/02 01:37:18;;;;;;;;;;;;;;;16.16;86.46;100689.47;5090603;28;20270;-76
2023/07/02 01:39:44;;;;;;;;;;;;;;;16.17;86.24;100690.31;5093336;28;19922;-75
2023/07/02 01:42:11;;;;;;;;;;;;;;;16.15;86.59;100689.53;5093368;28;19920;-76
2023/07/02 01:44:37;;;;;;;;;;;;;;;16.13;86.55;100682.47;5076318;28;20404;-76
2023/07/02 01:47:03;;;;;;;;;;;;;;;16.07;86.91;100696.13;5087692;28;20019;-75
2023/07/02 01:49:28;;;;;;;;;;;;;;;16.09;86.33;100696.03;5059053;28;19923;-76
2023/07/02 01:51:55;;;;;;;;;;;;;;;16.07;86.23;100695.22;5103443;28;20288;-75
2023/07/02 01:54:21;;;;;;;;;;;;;;;16.03;86.84;100697.19;5076164;28;19969;-75
2023/07/02 01:56:46;;;;;;;;;;;;;;;16.03;86.72;100696.34;5091068;28;19972;-75
2023/07/02 01:59:12;;;;;;;;;;;;;;;16.00;86.78;100696.44;5066684;28;20015;-75
2023/07/02 02:01:41;;;;;;;;;;;;;;;15.97;86.93;100705.47;5085845;28;19915;-75
2023/07/02 02:04:07;;;;;;;;;;;;;;;15.96;86.88;100701.09;5104534;28;19915;-75
2023/07/02 02:06:32;;;;;;;;;;;;;;;15.96;86.71;100705.56;5075652;28;19931;-75
2023/07/02 02:08:57;;;;;;;;;;;;;;;15.97;86.31;100704.63;5076194;28;20349;-75
2023/07/02 02:11:23;;;;;;;;;;;;;;;15.94;86.74;100702.97;5105032;28;20060;-75
2023/07/02 02:13:49;;;;;;;;;;;;;;;15.93;86.59;100697.72;5093012;28;19927;-75
2023/07/02 02:16:14;;;;;;;;;;;;;;;15.91;86.51;100698.63;5111387;28;19973;-75
2023/07/02 02:18:40;;;;;;;;;;;;;;;15.93;85.96;100698.56;5092781;28;19995;-75
2023/07/02 02:21:05;;;;;;;;;;;;;;;15.91;85.46;100701.28;5085021;28;20009;-75
2023/07/02 02:23:30;;;;;;;;;;;;;;;15.88;85.42;100709.44;5085534;28;19927;-75
2023/07/02 02:25:57;;;;;;;;;;;;;;;15.83;85.78;100708.81;5064478;28;19942;-75
2023/07/02 02:28:23;;;;;;;;;;;;;;;15.82;85.31;100708.88;5108294;28;19932;-75
2023/07/02 02:30:48;;;;;;;;;;;;;;;15.80;85.41;100719.63;5095699;28;20029;-75
2023/07/02 02:33:13;;;;;;;;;;;;;;;15.77;85.82;100722.41;5088917;28;20457;-75
2023/07/02 02:35:39;;;;;;;;;;;;;;;15.73;86.04;100712.84;5082442;28;20211;-75
2023/07/02 02:38:05;;;;;;;;;;;;;;;15.73;86.01;100725.31;5115150;28;19927;-76
2023/07/02 02:40:30;;;;;;;;;;;;;;;15.71;85.81;100720.03;5092093;28;19920;-75
2023/07/02 02:42:56;;;;;;;;;;;;;;;15.68;85.73;100720.16;5079064;28;19917;-76
2023/07/02 02:45:22;;;;;;;;;;;;;;;15.67;85.81;100723.75;5081588;28;19928;-75
2023/07/02 02:47:48;;;;;;;;;;;;;;;15.66;85.45;100730.03;5090853;28;19922;-76
2023/07/02 02:50:13;;;;;;;;;;;;;;;15.63;85.10;100730.16;5077717;28;20065;-75
2023/07/02 02:52:39;;;;;;;;;;;;;;;15.61;85.54;100726.69;5079653;28;20007;-75
2023/07/02 02:55:06;;;;;;;;;;;;;;;15.60;85.16;100731.19;5081883;28;19950;-75
2023/07/02 02:57:31;;;;;;;;;;;;;;;15.59;85.66;100732.09;5084102;28;19923;-76
2023/07/02 02:59:57;;;;;;;;;;;;;;;15.59;85.63;100731.22;5099165;28;20025;-76
2023/07/02 03:02:22;;;;;;;;;;;;;;;15.58;85.68;100737.47;5083425;28;19924;-76
2023/07/02 03:04:49;;;;;;;;;;;;;;;15.56;85.47;100739.38;5070682;28;20277;-75
2023/07/02 03:07:14;;;;;;;;;;;;;;;15.52;85.27;100738.63;5076276;28;19963;-76
2023/07/02 03:09:39;;;;;;;;;;;;;;;15.48;84.51;100745.06;5096061;28;19985;-75
2023/07/02 03:12:05;;;;;;;;;;;;;;;15.45;83.98;100754.06;5096019;28;19916;-76
2023/07/02 03:14:31;;;;;;;;;;;;;;;15.42;82.37;100747.97;5095809;28;19945;-76
2023/07/02 03:16:56;;;;;;;;;;;;;;;15.40;82.63;100756.03;5114270;28;20021;-75
2023/07/02 03:19:21;;;;;;;;;;;;;;;15.34;80.98;100747.44;5114066;28;20534;-76
2023/07/02 03:21:47;;;;;;;;;;;;;;;15.33;81.31;100749.25;5093201;28;20048;-76
2023/07/02 03:24:13;;;;;;;;;;;;;;;15.30;80.32;100749.38;5081338;28;19927;-75
2023/07/02 03:26:39;;;;;;;;;;;;;;;15.29;80.13;100760.97;5113745;28;19975;-75
2023/07/02 03:29:04;;;;;;;;;;;;;;;15.25;79.91;100757.56;5104184;28;19924;-76
2023/07/02 03:31:29;;;;;;;;;;;;;;;15.23;79.01;100766.56;5068886;28;20006;-76
2023/07/02 03:33:55;;;;;;;;;;;;;;;15.20;78.71;100764.03;5095333;28;19923;-75
2023/07/02 03:36:20;;;;;;;;;;;;;;;15.14;77.60;100765.16;5111285;28;19927;-75
2023/07/02 03:38:46;;;;;;;;;;;;;;;15.12;76.63;100763.50;5113012;28;19960;-76
2023/07/02 03:41:11;;;;;;;;;;;;;;;15.10;76.50;100771.56;5078296;28;19959;-75
2023/07/02 03:43:36;;;;;;;;;;;;;;;15.07;77.12;100773.50;5113219;28;19927;-76
2023/07/02 03:46:02;;;;;;;;;;;;;;;15.03;77.06;100778.97;5113679;28;19924;-75
2023/07/02 03:48:27;;;;;;;;;;;;;;;15.03;76.82;100780.75;5095007;28;20031;-76
2023/07/02 03:50:52;;;;;;;;;;;;;;;15.03;77.17;100786.06;5113281;28;19981;-76
2023/07/02 03:53:18;;;;;;;;;;;;;;;15.02;77.11;100777.22;5113429;28;19920;-76
2023/07/02 03:55:43;;;;;;;;;;;;;;;15.01;75.96;100788.81;5113634;28;20011;-76
2023/07/02 03:58:08;;;;;;;;;;;;;;;15.01;77.06;100778.16;5100909;28;20221;-75
2023/07/02 04:00:34;;;;;;;;;;;;;;;15.01;77.19;100780.81;5077819;28;19920;-75
2023/07/02 04:02:59;;;;;;;;;;;;;;;15.00;75.58;100786.22;5113278;28;20043;-75
2023/07/02 04:05:24;;;;;;;;;;;;;;;14.97;75.00;100783.66;5113543;28;20024;-76
2023/07/02 04:07:50;;;;;;;;;;;;;;;14.96;75.42;100781.91;5077633;28;20430;-76
2023/07/02 04:10:15;;;;;;;;;;;;;;;14.95;75.49;100785.53;5094849;28;19995;-76
2023/07/02 04:12:40;;;;;;;;;;;;;;;14.96;76.36;100796.16;5094591;28;20294;-76
2023/07/02 04:15:06;;;;;;;;;;;;;;;14.92;74.63;100789.19;5112925;28;20246;-75
2023/07/02 04:17:32;;;;;;;;;;;;;;;14.92;75.20;100785.66;5094387;28;20058;-76
2023/07/02 04:19:57;;;;;;;;;;;;;;;14.92;76.01;100791.00;5105711;28;20007;-75
2023/07/02 04:22:22;;;;;;;;;;;;;;;14.89;75.92;100789.31;5089991;28;19934;-75
2023/07/02 04:24:48;;;;;;;;;;;;;;;14.88;76.80;100790.22;5094284;28;20295;-75
2023/07/02 04:27:17;;;;;;;;;;;;;;;14.83;76.75;100787.75;5094589;28;19980;-75
2023/07/02 04:29:43;;;;;;;;;;;;;;;14.82;77.82;100794.03;5103967;28;19919;-76
2023/07/02 04:32:08;;;;;;;;;;;;;;;14.82;78.27;100798.50;5108047;28;19931;-75
2023/07/02 04:34:36;;;;;;;;;;;;;;;14.82;78.46;100801.16;5108869;28;19920;-76
2023/07/02 04:37:02;;;;;;;;;;;;;;;14.81;78.79;100804.72;5084788;28;20419;-75
2023/07/02 04:39:27;;;;;;;;;;;;;;;14.84;78.56;100805.50;5112428;28;19922;-75
2023/07/02 04:41:53;;;;;;;;;;;;;;;14.86;78.35;100813.44;5112579;28;20034;-75
2023/07/02 04:44:20;;;;;;;;;;;;;;;14.87;78.77;100812.50;5112344;28;20009;-76
2023/07/02 04:46:46;;;;;;;;;;;;;;;14.90;78.52;100808.84;5108628;28;20271;-74
2023/07/02 04:49:11;;;;;;;;;;;;;;;14.89;77.97;100820.44;5085270;28;19973;-76
2023/07/02 04:51:36;;;;;;;;;;;;;;;14.93;77.96;100814.91;5112098;28;20269;-75
2023/07/02 04:54:02;;;;;;;;;;;;;;;14.94;76.40;100814.00;5102027;28;19920;-76
2023/07/02 04:56:27;;;;;;;;;;;;;;;14.96;75.24;100816.59;5089775;28;20401;-76
2023/07/02 04:58:52;;;;;;;;;;;;;;;14.97;76.02;100823.66;5078656;28;19924;-75
2023/07/02 05:01:18;;;;;;;;;;;;;;;14.99;74.82;100827.16;5093777;28;19920;-75
2023/07/02 05:03:43;;;;;;;;;;;;;;;15.02;74.73;100824.34;5093712;28;19930;-75
2023/07/02 05:06:09;;;;;;;;;;;;;;;15.04;74.23;100822.50;5111962;28;19920;-75
2023/07/02 05:08:34;;;;;;;;;;;;;;;15.11;74.86;100831.09;5111703;28;20007;-75
2023/07/02 05:10:59;;;;;;;;;;;;;;;15.13;73.79;100832.75;5112200;28;20321;-75
2023/07/02 05:13:25;;;;;;;;;;;;;;;15.18;74.20;100838.81;5093451;28;20298;-76
2023/07/02 05:15:50;;;;;;;;;;;;;;;15.22;74.24;100836.88;5112180;28;19926;-76
2023/07/02 05:18:15;;;;;;;;;;;;;;;15.23;73.20;100834.16;5111757;28;20115;-75
2023/07/02 05:20:41;;;;;;;;;;;;;;;15.27;73.66;100842.88;5083590;28;19986;-76
2023/07/02 05:23:06;;;;;;;;;;;;;;;15.30;73.61;100840.06;5093325;28;19919;-75
2023/07/02 05:25:33;;;;;;;;;;;;;;;15.31;72.52;100847.16;5111959;28;19924;-76
2023/07/02 05:27:59;;;;;;;;;;;;;;;15.34;72.82;100849.69;5093002;28;19920;-76
2023/07/02 05:30:25;;;;;;;;;;;;;;;15.36;70.97;100853.19;5081344;28;19981;-75
2023/07/02 05:32:50;;;;;;;;;;;;;;;15.44;72.67;100855.53;5091299;28;20371;-76
2023/07/02 05:35:16;;;;;;;;;;;;;;;15.53;71.29;100860.50;5101967;28;19936;-75
2023/07/02 05:37:41;;;;;;;;;;;;;;;15.60;71.55;100861.06;5107430;28;20026;-76
2023/07/02 05:40:07;;;;;;;;;;;;;;;15.64;71.67;100857.34;5093346;28;19944;-76
2023/07/02 05:42:32;;;;;;;;;;;;;;;15.69;72.08;100858.03;5111852;28;19978;-76
2023/07/02 05:44:57;;;;;;;;;;;;;;;15.73;72.13;100872.16;5103436;28;19986;-75
2023/07/02 05:47:23;;;;;;;;;;;;;;;15.79;71.85;100871.88;5091517;28;19924;-75
2023/07/02 05:49:48;;;;;;;;;;;;;;;15.79;69.95;100863.88;5075703;28;19974;-75
2023/07/02 05:52:13;;;;;;;;;;;;;;;15.84;70.68;100872.53;5093993;28;20286;-75
2023/07/02 05:54:40;;;;;;;;;;;;;;;15.88;70.83;100871.50;5080634;28;20302;-75
2023/07/02 05:57:05;;;;;;;;;;;;;;;15.93;70.94;100871.28;5101711;28;19920;-75
2023/07/02 05:59:30;;;;;;;;;;;;;;;15.96;69.98;100869.34;5108226;28;19919;-69
2023/07/02 06:01:56;;;;;;;;;;;;;;;15.96;69.46;100882.69;5086161;28;19920;-69
2023/07/02 06:04:21;;;;;;;;;;;;;;;15.98;68.91;100877.31;5096319;28;20097;-70
2023/07/02 06:06:47;;;;;;;;;;;;;;;15.98;68.73;100880.84;5104718;28;19927;-69
2023/07/02 06:09:12;;;;;;;;;;;;;;;16.00;69.02;100883.41;5100778;28;20375;-69
2023/07/02 06:11:38;;;;;;;;;;;;;;;16.07;68.80;100887.56;5089110;28;19920;-69
2023/07/02 06:14:03;;;;;;;;;;;;;;;16.07;68.72;100884.88;5084223;28;20000;-69
2023/07/02 06:16:28;;;;;;;;;;;;;;;16.11;67.99;100887.38;5105690;28;20007;-70
2023/07/02 06:18:54;;;;;;;;;;;;;;;16.12;67.20;100896.25;5106015;28;19930;-69
2023/07/02 06:21:20;;;;;;;;;;;;;;;16.18;67.91;100892.44;5077840;28;20377;-69
2023/07/02 06:23:45;;;;;;;;;;;;;;;16.21;68.23;100903.00;5102433;28;19916;-69
2023/07/02 06:26:10;;;;;;;;;;;;;;;16.24;67.76;100901.03;5083173;28;19927;-69
2023/07/02 06:28:36;;;;;;;;;;;;;;;16.29;67.18;100900.84;5102533;28;20331;-69
2023/07/02 06:31:01;;;;;;;;;;;;;;;16.35;67.43;100900.59;5098974;28;20022;-70
2023/07/02 06:33:26;;;;;;;;;;;;;;;16.43;67.77;100909.13;5073252;28;19950;-69
2023/07/02 06:35:52;;;;;;;;;;;;;;;16.52;67.81;100907.84;5076945;28;19995;-69
2023/07/02 06:38:17;;;;;;;;;;;;;;;16.55;66.93;100908.56;5087151;28;19995;-70
2023/07/02 06:40:43;;;;;;;;;;;;;;;16.61;67.21;100907.41;5070835;28;20389;-70
2023/07/02 06:43:08;;;;;;;;;;;;;;;16.66;66.82;100909.88;5102489;28;20278;-69
2023/07/02 06:45:33;;;;;;;;;;;;;;;16.69;65.68;100899.91;5109379;28;19924;-70
2023/07/02 06:47:59;;;;;;;;;;;;;;;16.72;65.23;100906.91;5095593;28;19924;-70
2023/07/02 06:50:24;;;;;;;;;;;;;;;16.76;64.69;100912.06;5090703;28;19916;-69
2023/07/02 06:52:49;;;;;;;;;;;;;;;16.76;63.51;100916.50;5103430;28;20103;-69
2023/07/02 06:55:15;;;;;;;;;;;;;;;16.79;64.48;100920.88;5095622;28;19971;-70
2023/07/02 06:57:45;;;;;;;;;;;;;;;16.81;64.02;100913.66;5096477;28;19923;-69
2023/07/02 07:00:10;;;;;;;;;;;;;;;16.83;62.67;100928.69;5103015;28;20036;-69
2023/07/02 07:02:36;;;;;;;;;;;;;;;16.86;63.09;100935.72;5085839;28;19986;-69
2023/07/02 07:05:01;;;;;;;;;;;;;;;16.89;64.32;100932.88;5090763;28;19931;-70
2023/07/02 07:07:27;;;;;;;;;;;;;;;16.96;65.22;100934.34;5055025;28;20007;-69
2023/07/02 07:09:53;;;;;;;;;;;;;;;17.08;64.93;100936.44;5090137;28;20010;-70
2023/07/02 07:12:18;;;;;;;;;;;;;;;17.19;64.41;100942.16;5068990;28;20077;-70
2023/07/02 07:14:44;;;;;;;;;;;;;;;17.25;61.77;100945.47;5076286;28;20278;-70
2023/07/02 07:17:09;;;;;;;;;;;;;;;17.20;61.83;100949.22;5061778;28;19920;-70
2023/07/02 07:19:34;;;;;;;;;;;;;;;17.24;61.75;100951.78;5090136;28;19932;-70
2023/07/02 07:22:00;;;;;;;;;;;;;;;17.27;61.85;100948.97;5104514;28;20016;-70
2023/07/02 07:24:25;;;;;;;;;;;;;;;17.31;61.13;100946.06;5101893;28;19920;-70
2023/07/02 07:26:50;;;;;;;;;;;;;;;17.34;60.66;100956.63;5097211;28;19931;-70
2023/07/02 07:29:16;;;;;;;;;;;;;;;17.30;59.99;100952.34;5076102;28;20002;-71
2023/07/02 07:31:41;;;;;;;;;;;;;;;17.29;59.95;100969.34;5075954;28;19924;-70
2023/07/02 07:34:06;;;;;;;;;;;;;;;17.34;60.54;100955.75;5081425;28;19920;-70
2023/07/02 07:36:32;;;;;;;;;;;;;;;17.45;59.96;100964.13;5077912;28;19924;-70
2023/07/02 07:38:57;;;;;;;;;;;;;;;17.43;60.31;100966.00;5095662;28;19985;-70
2023/07/02 07:41:22;;;;;;;;;;;;;;;17.51;59.47;100979.03;5086681;28;20374;-70
2023/07/02 07:43:48;;;;;;;;;;;;;;;17.55;59.15;100981.47;5076171;28;20216;-70
2023/07/02 07:46:13;;;;;;;;;;;;;;;17.63;59.86;100976.63;5087721;28;19943;-70
2023/07/02 07:48:38;;;;;;;;;;;;;;;17.71;60.25;100975.38;5070358;28;19965;-70
2023/07/02 07:51:04;;;;;;;;;;;;;;;17.81;60.87;100980.22;5099139;28;20299;-70
2023/07/02 07:53:29;;;;;;;;;;;;;;;17.87;58.18;100978.19;5090470;28;20220;-70
2023/07/02 07:55:55;;;;;;;;;;;;;;;17.77;57.96;100977.75;5088787;28;19916;-69
2023/07/02 07:58:20;;;;;;;;;;;;;;;17.78;58.00;100983.03;5089690;28;20263;-70
2023/07/02 08:00:45;;;;;;;;;;;;;;;17.77;59.23;100978.59;5094838;28;19920;-70
2023/07/02 08:03:11;;;;;;;;;;;;;;;17.79;56.32;100986.56;5112287;28;19920;-70
2023/07/02 08:05:36;;;;;;;;;;;;;;;17.74;57.17;100994.84;5092570;28;19920;-70
2023/07/02 08:08:01;;;;;;;;;;;;;;;17.73;56.14;100979.72;5113299;28;20488;-70
2023/07/02 08:10:27;;;;;;;;;;;;;;;17.81;57.15;100990.94;5087790;28;20425;-70
2023/07/02 08:12:53;;;;;;;;;;;;;;;17.86;56.03;100987.19;5075119;28;19931;-70
2023/07/02 08:15:19;;;;;;;;;;;;;;;17.83;54.82;100985.53;5106043;28;19908;-70
2023/07/02 08:17:44;;;;;;;;;;;;;;;17.86;56.41;100989.84;5107541;28;19926;-70
2023/07/02 08:20:10;;;;;;;;;;;;;;;17.95;56.59;100992.06;5112914;28;19923;-71
2023/07/02 08:22:37;;;;;;;;;;;;;;;17.99;55.73;100993.66;5077532;28;19927;-70
2023/07/02 08:25:03;;;;;;;;;;;;;;;18.02;55.65;100994.34;5091041;28;19916;-70
2023/07/02 08:27:28;;;;;;;;;;;;;;;18.03;55.61;101004.13;5090642;28;19927;-70
2023/07/02 08:29:53;;;;;;;;;;;;;;;18.20;54.16;100995.25;5090616;28;19945;-71
2023/07/02 08:32:19;;;;;;;;;;;;;;;18.13;53.45;101003.69;5095791;28;19920;-70
2023/07/02 08:34:44;;;;;;;;;;;;;;;18.05;53.20;101010.28;5097898;28;19956;-70
2023/07/02 08:37:10;;;;;;;;;;;;;;;17.97;52.64;101016.97;5097992;28;19912;-70
2023/07/02 08:39:37;;;;;;;;;;;;;;;17.87;52.93;101018.38;5082056;28;19981;-70
2023/07/02 08:42:02;;;;;;;;;;;;;;;17.92;52.86;101011.84;5100946;28;19972;-70
2023/07/02 08:44:28;;;;;;;;;;;;;;;17.81;53.97;101017.72;5104804;28;20021;-70
2023/07/02 08:46:56;;;;;;;;;;;;;;;17.85;52.34;101018.44;5085574;28;19997;-69
2023/07/02 08:49:21;;;;;;;;;;;;;;;17.94;52.00;101012.63;5098252;28;19919;-70
2023/07/02 08:51:47;;;;;;;;;;;;;;;18.12;52.74;101009.97;5092371;28;19920;-70
2023/07/02 08:54:12;;;;;;;;;;;;;;;18.29;52.07;101015.34;5097128;28;19927;-71
2023/07/02 08:56:38;;;;;;;;;;;;;;;18.61;53.54;101019.03;5082001;28;19967;-70
2023/07/02 08:59:06;;;;;;;;;;;;;;;18.94;49.94;101009.28;5074852;28;19932;-70
2023/07/02 09:01:31;;;;;;;;;;;;;;;19.02;50.10;101005.25;5086617;28;20367;-70
2023/07/02 09:04:00;;;;;;;;;;;;;;;19.12;49.44;101006.47;5089117;28;20026;-71
2023/07/02 09:06:25;;;;;;;;;;;;;;;19.20;50.50;101005.19;5086677;28;19920;-70
2023/07/02 09:08:51;;;;;;;;;;;;;;;19.21;51.19;101004.22;5091545;28;19920;-71
2023/07/02 09:11:17;;;;;;;;;;;;;;;19.18;52.33;101012.47;5091891;28;19920;-71
2023/07/02 09:13:43;;;;;;;;;;;;;;;19.15;52.35;101013.50;5091820;28;19916;-70
2023/07/02 09:16:21;;;;;;;;;;;;;;;19.07;51.32;101015.75;5091612;28;19981;-70
2023/07/02 09:18:55;;;;;;;;;;;;;;;19.02;52.21;101009.75;5058486;28;20246;-70
2023/07/02 09:21:20;;;;;;;;;;;;;;;19.03;51.11;101012.34;5092017;28;20292;-70
2023/07/02 09:23:45;;;;;;;;;;;;;;;18.82;50.32;101024.25;5086988;28;19981;-69
2023/07/02 09:26:19;;;;;;;;;;;;;;;18.74;50.25;101013.88;5091653;28;20289;-70
2023/07/02 09:28:44;;;;;;;;;;;;;;;18.93;52.12;101005.75;5086421;28;20349;-76
2023/07/02 09:31:09;;;;;;;;;;;;;;;19.34;49.83;101003.47;5091649;28;19916;-76
2023/07/02 09:33:35;;;;;;;;;;;;;;;19.49;48.97;101001.75;5092329;28;20278;-75
2023/07/02 09:36:00;;;;;;;;;;;;;;;19.52;50.23;101004.25;5074542;28;19927;-76
2023/07/02 09:38:26;;;;;;;;;;;;;;;19.65;49.70;100996.34;5091761;28;20008;-76
2023/07/02 09:40:52;;;;;;;;;;;;;;;19.94;51.10;100996.53;5085156;28;20373;-76
2023/07/02 09:43:21;;;;;;;;;;;;;;;20.07;47.07;100997.53;5097540;28;19982;-76
2023/07/02 09:45:47;;;;;;;;;;;;;;;19.98;46.45;101001.66;5093254;28;20003;-76
2023/07/02 09:48:14;;;;;;;;;;;;;;;19.75;45.87;101002.09;5083958;28;19920;-76
2023/07/02 09:50:40;;;;;;;;;;;;;;;19.58;47.64;101008.41;5071858;28;19939;-76
2023/07/02 09:53:06;;;;;;;;;;;;;;;19.31;48.42;101005.44;5087310;28;19924;-75
2023/07/02 09:55:31;;;;;;;;;;;;;;;19.07;48.26;101030.03;5091589;28;19927;-75
2023/07/02 09:57:57;;;;;;;;;;;;;;;18.77;49.26;101012.88;5072426;28;19920;-75
2023/07/02 10:00:22;;;;;;;;;;;;;;;18.66;50.33;101016.97;5072374;28;20354;-76
2023/07/02 10:02:49;;;;;;;;;;;;;;;18.74;51.33;101013.88;5091064;28;20012;-75
2023/07/02 10:05:31;;;;;;;;;;;;;;;18.88;51.37;101022.09;5093321;28;19942;-75
2023/07/02 10:07:57;;;;;;;;;;;;;;;19.38;50.25;101031.00;5089547;28;20019;-75
2023/07/02 10:10:29;;;;;;;;;;;;;;;19.69;50.43;101027.50;5091758;28;19931;-75
2023/07/02 10:12:55;;;;;;;;;;;;;;;19.84;49.24;101032.97;5085375;28;20339;-76
2023/07/02 10:15:27;;;;;;;;;;;;;;;19.81;49.27;101038.53;5104552;28;19916;-76
2023/07/02 10:17:59;;;;;;;;;;;;;;;19.64;47.61;101040.31;5059045;28;19916;-76
2023/07/02 10:20:41;;;;;;;;;;;;;;;19.41;47.78;101040.72;5089358;28;19916;-76
2023/07/02 10:23:07;;;;;;;;;;;;;;;19.07;47.65;101043.44;5077059;28;19917;-77
2023/07/02 10:25:34;;;;;;;;;;;;;;;19.00;48.79;101046.53;5083614;28;19931;-76
2023/07/02 10:28:00;;;;;;;;;;;;;;;18.98;50.25;101043.94;5087670;28;20457;-77
2023/07/02 10:30:36;;;;;;;;;;;;;;;19.11;49.39;101045.03;5090170;28;19951;-77
2023/07/02 10:33:09;;;;;;;;;;;;;;;19.26;49.73;101043.31;5096988;28;20043;-77
2023/07/02 10:35:34;;;;;;;;;;;;;;;19.37;49.32;101040.03;5100090;28;19995;-77
2023/07/02 10:37:59;;;;;;;;;;;;;;;19.44;49.45;101045.94;5058426;28;20014;-77
2023/07/02 10:40:25;;;;;;;;;;;;;;;19.59;49.50;101044.22;5093198;28;20443;-77
2023/07/02 10:42:52;;;;;;;;;;;;;;;19.53;48.44;101045.41;5076269;28;19927;-77
2023/07/02 10:45:17;;;;;;;;;;;;;;;19.50;48.35;101049.13;5085248;28;19932;-77
2023/07/02 10:47:43;;;;;;;;;;;;;;;19.71;47.96;101047.09;5085060;28;19994;-77
2023/07/02 10:50:15;;;;;;;;;;;;;;;19.95;49.14;101042.16;5086847;28;19942;-77
2023/07/02 10:52:41;;;;;;;;;;;;;;;20.21;47.55;101050.50;5094022;28;19955;-77
2023/07/02 10:55:06;;;;;;;;;;;;;;;20.26;46.54;101040.34;5094219;28;19959;-77
2023/07/02 10:57:32;;;;;;;;;;;;;;;20.23;47.49;101050.38;5094291;28;19922;-77
2023/07/02 11:00:04;;;;;;;;;;;;;;;20.13;48.29;101045.56;5058678;28;19966;-77
2023/07/02 11:02:33;;;;;;;;;;;;;;;19.98;46.98;101047.34;5094166;28;19967;-76
2023/07/02 11:04:59;;;;;;;;;;;;;;;19.82;48.10;101051.00;5094088;28;19962;-77
2023/07/02 11:07:24;;;;;;;;;;;;;;;19.74;48.46;101059.50;5061861;28;20339;-77
2023/07/02 11:09:51;;;;;;;;;;;;;;;19.63;48.52;101057.34;5072318;28;19931;-76
2023/07/02 11:12:16;;;;;;;;;;;;;;;19.59;49.13;101060.31;5073640;28;20514;-77
2023/07/02 11:14:42;;;;;;;;;;;;;;;19.54;49.53;101053.38;5070398;28;20045;-77
2023/07/02 11:17:07;;;;;;;;;;;;;;;19.60;49.27;101062.91;5071290;28;19924;-77
2023/07/02 11:19:33;;;;;;;;;;;;;;;19.70;49.27;101056.09;5072592;28;20008;-77
2023/07/02 11:21:59;;;;;;;;;;;;;;;19.89;47.22;101055.91;5082983;28;19981;-76
2023/07/02 11:24:31;;;;;;;;;;;;;;;20.05;47.56;101055.03;5071764;28;19924;-77
2023/07/02 11:26:57;;;;;;;;;;;;;;;20.18;48.01;101045.31;5071206;28;19958;-76
2023/07/02 11:29:22;;;;;;;;;;;;;;;20.38;47.24;101044.13;5070786;28;20007;-77
2023/07/02 11:31:48;;;;;;;;;;;;;;;20.53;45.48;101043.19;5072845;28;20034;-77
2023/07/02 11:34:16;;;;;;;;;;;;;;;20.44;47.39;101042.88;5072557;28;19985;-76
2023/07/02 11:36:42;;;;;;;;;;;;;;;20.50;48.83;101048.78;5071313;28;20327;-77
2023/07/02 11:39:08;;;;;;;;;;;;;;;20.82;46.99;101044.16;5065444;28;19916;-77
2023/07/02 11:41:39;;;;;;;;;;;;;;;20.83;46.78;101039.63;5070572;28;19927;-76
2023/07/02 11:44:05;;;;;;;;;;;;;;;20.81;47.24;101033.47;5072588;28;19924;-77
2023/07/02 11:46:31;;;;;;;;;;;;;;;20.76;45.15;101039.13;5072494;28;19924;-77
2023/07/02 11:48:56;;;;;;;;;;;;;;;20.64;45.57;101052.47;5072631;28;19921;-77
2023/07/02 11:51:21;;;;;;;;;;;;;;;20.61;46.29;101045.47;5059524;28;19916;-77
2023/07/02 11:53:47;;;;;;;;;;;;;;;20.60;46.79;101033.84;5085121;28;19969;-77
2023/07/02 11:56:13;;;;;;;;;;;;;;;20.77;45.67;101038.19;5072546;28;20016;-76
2023/07/02 11:58:38;;;;;;;;;;;;;;;20.99;43.96;101032.34;5074091;28;19936;-77
2023/07/02 12:01:04;;;;;;;;;;;;;;;21.18;44.33;101042.81;5088471;28;19976;-77
2023/07/02 12:03:30;;;;;;;;;;;;;;;21.24;42.72;101036.16;5070444;28;20436;-79
2023/07/02 12:05:55;;;;;;;;;;;;;;;21.27;43.51;101038.69;5072266;28;19920;-75
2023/07/02 12:08:21;;;;;;;;;;;;;;;21.46;42.03;101046.47;5072927;28;19931;-75
2023/07/02 12:10:46;;;;;;;;;;;;;;;21.39;40.50;101031.66;5074121;28;19916;-75
2023/07/02 12:13:12;;;;;;;;;;;;;;;21.30;42.13;101043.00;5091582;28;19920;-75
2023/07/02 12:15:37;;;;;;;;;;;;;;;21.09;40.95;101046.06;5092522;28;19969;-75
2023/07/02 12:18:02;;;;;;;;;;;;;;;20.98;41.08;101054.81;5068423;28;20053;-75
2023/07/02 12:20:28;;;;;;;;;;;;;;;20.95;39.67;101054.16;5089997;28;19920;-75
2023/07/02 12:22:53;;;;;;;;;;;;;;;21.21;39.77;101048.00;5092306;28;20023;-76
2023/07/02 12:25:18;;;;;;;;;;;;;;;21.51;40.93;101048.88;5092199;28;19924;-76
2023/07/02 12:27:44;;;;;;;;;;;;;;;21.67;39.46;101057.69;5091916;28;19960;-75
2023/07/02 12:30:09;;;;;;;;;;;;;;;21.48;38.16;101048.09;5072630;28;20343;-75